Time;durP1;ratioP1;P1;durP2;ratioP2;P2;SDS_P1;SDS_P2;PMS_P1;PMS_P2;Temp;Humidity;BMP_temperature;BMP_pressure;BME280_temperature;BME280_humidity;BME280_pressure;Samples;Min_cycle;Max_cycle;Signal;HPM_P1;HPM_P2
2023/05/01 00:00:04;;;;;;;9.90;4.88;;;6.90;99.90;;;;;;5074528;28;20121;-25
2023/05/01 00:02:30;;;;;;;10.63;4.38;;;6.90;99.90;;;;;;5074192;28;20491;-25
2023/05/01 00:04:56;;;;;;;8.85;4.30;;;6.90;1.00;;;;;;5074120;28;20063;-26
2023/05/01 00:07:24;;;;;;;7.90;5.00;;;6.90;99.90;;;;;;5073145;28;20047;-25
2023/05/01 00:09:50;;;;;;;8.27;4.68;;;6.90;99.90;;;;;;5074114;28;20102;-25
2023/05/01 00:12:17;;;;;;;8.60;4.60;;;6.90;99.90;;;;;;5074065;28;20052;-25
2023/05/01 00:14:42;;;;;;;8.85;4.65;;;6.80;99.90;;;;;;5074231;28;20060;-25
2023/05/01 00:17:08;;;;;;;7.68;4.68;;;6.80;99.90;;;;;;5073970;28;20509;-26
2023/05/01 00:19:34;;;;;;;8.38;4.28;;;6.90;1.00;;;;;;5072804;28;20084;-25
2023/05/01 00:22:00;;;;;;;11.40;5.25;;;6.80;1.00;;;;;;5075067;28;20382;-25
2023/05/01 00:24:26;;;;;;;14.27;5.28;;;6.80;99.90;;;;;;5056050;28;20045;-25
2023/05/01 00:26:51;;;;;;;9.43;4.93;;;6.80;1.00;;;;;;5073860;28;20052;-25
2023/05/01 00:29:17;;;;;;;10.95;5.10;;;6.70;1.00;;;;;;5072597;28;20048;-25
2023/05/01 00:31:44;;;;;;;7.13;4.50;;;6.70;1.00;;;;;;5073800;28;20052;-25
2023/05/01 00:34:12;;;;;;;6.80;4.05;;;6.70;1.00;;;;;;5073727;28;20066;-26
2023/05/01 00:36:38;;;;;;;11.73;4.88;;;6.70;1.00;;;;;;5072236;28;20049;-26
2023/05/01 00:39:06;;;;;;;10.02;4.53;;;6.70;1.00;;;;;;5072775;28;20051;-26
2023/05/01 00:41:33;;;;;;;10.38;4.50;;;6.60;1.00;;;;;;5056938;28;20052;-26
2023/05/01 00:43:59;;;;;;;11.05;4.68;;;6.60;1.00;;;;;;5073633;28;20040;-26
2023/05/01 00:46:25;;;;;;;10.25;4.65;;;6.60;1.00;;;;;;5073902;28;20070;-25
2023/05/01 00:48:51;;;;;;;12.20;4.72;;;6.50;1.00;;;;;;5056273;28;20048;-26
2023/05/01 00:51:19;;;;;;;9.75;4.50;;;6.50;1.00;;;;;;5072900;28;20195;-25
2023/05/01 00:53:45;;;;;;;10.60;5.20;;;6.40;1.00;;;;;;5073504;28;20036;-25
2023/05/01 00:56:11;;;;;;;9.57;5.00;;;6.30;1.00;;;;;;5073526;28;20092;-26
2023/05/01 00:58:37;;;;;;;9.57;4.82;;;6.30;1.00;;;;;;5072335;28;20087;-25
2023/05/01 01:01:08;;;;;;;8.23;4.43;;;6.20;1.00;;;;;;5073525;28;20040;-26
2023/05/01 01:03:34;;;;;;;10.13;5.10;;;6.20;1.00;;;;;;5072561;28;20091;-25
2023/05/01 01:06:03;;;;;;;11.55;4.63;;;6.10;1.00;;;;;;5073215;28;20087;-25
2023/05/01 01:08:51;;;;;;;11.80;5.10;;;6.10;1.00;;;;;;5073118;28;20088;-26
2023/05/01 01:11:26;;;;;;;10.77;5.68;;;6.00;1.00;;;;;;5059865;28;20056;-26
2023/05/01 01:13:59;;;;;;;11.27;5.03;;;6.00;1.00;;;;;;5077988;28;20036;-26
2023/05/01 01:16:38;;;;;;;9.05;5.57;;;6.00;1.00;;;;;;5078073;28;20132;-26
2023/05/01 01:19:07;;;;;;;12.57;5.53;;;6.00;1.00;;;;;;5077422;28;20049;-25
2023/05/01 01:21:39;;;;;;;8.45;4.57;;;6.00;1.00;;;;;;5077620;28;20382;-25
2023/05/01 01:24:38;;;;;;;8.80;5.33;;;6.00;1.00;;;;;;5076698;28;20052;-25
2023/05/01 01:27:22;;;;;;;9.32;4.75;;;6.00;1.00;;;;;;5077593;28;20049;-25
2023/05/01 01:30:20;;;;;;;10.38;5.07;;;5.90;1.00;;;;;;5077183;28;20056;-26
2023/05/01 01:33:18;;;;;;;7.55;5.50;;;5.90;1.00;;;;;;5043216;28;20098;-25
2023/05/01 01:35:56;;;;;;;8.77;5.40;;;5.90;1.00;;;;;;5038808;28;20472;-25
2023/05/01 01:38:45;;;;;;;13.85;6.10;;;5.80;1.00;;;;;;5077609;28;20072;-25
2023/05/01 01:41:22;;;;;;;8.98;5.47;;;5.80;1.00;;;;;;5077454;28;20056;-26
2023/05/01 01:44:01;;;;;;;7.85;5.10;;;5.80;1.00;;;;;;5077162;28;20390;-27
2023/05/01 01:46:27;;;;;;;13.57;5.35;;;5.80;1.00;;;;;;5077322;28;20040;-25
2023/05/01 01:48:55;;;;;;;9.40;5.63;;;5.70;1.00;;;;;;5076640;28;20125;-30
2023/05/01 01:51:22;;;;;;;9.82;5.40;;;5.70;1.00;;;;;;5059418;28;20084;-25
2023/05/01 01:53:52;;;;;;;8.13;5.22;;;5.70;1.00;;;;;;5076573;28;20047;-25
2023/05/01 01:56:20;;;;;;;9.50;5.30;;;5.70;1.00;;;;;;5077287;28;20055;-25
2023/05/01 01:58:49;;;;;;;10.38;5.32;;;5.60;1.00;;;;;;5076603;28;20052;-26
2023/05/01 02:01:17;;;;;;;11.07;5.13;;;5.60;1.00;;;;;;5077107;28;20052;-25
2023/05/01 02:03:45;;;;;;;9.55;5.22;;;5.50;1.00;;;;;;5075532;28;20117;-25
2023/05/01 02:06:13;;;;;;;10.52;5.70;;;5.50;1.00;;;;;;5077287;28;20041;-26
2023/05/01 02:08:41;;;;;;;10.02;5.72;;;5.50;5.30;;;;;;5076968;28;20053;-25
2023/05/01 02:11:07;;;;;;;11.60;5.22;;;5.60;16.80;;;;;;5075794;28;20088;-25
2023/05/01 02:13:37;;;;;;;12.02;6.35;;;5.60;34.20;;;;;;5076261;28;20135;-25
2023/05/01 02:16:05;;;;;;;10.45;6.40;;;5.60;37.80;;;;;;5076110;28;20143;-25
2023/05/01 02:18:32;;;;;;;9.23;5.43;;;5.60;26.70;;;;;;5076544;28;20106;-26
2023/05/01 02:20:59;;;;;;;9.82;6.13;;;5.60;43.60;;;;;;5075678;28;20379;-25
2023/05/01 02:23:30;;;;;;;10.50;5.95;;;5.60;47.20;;;;;;5076044;28;20048;-26
2023/05/01 02:25:59;;;;;;;13.25;5.50;;;5.60;64.60;;;;;;5076176;28;20099;-26
2023/05/01 02:28:27;;;;;;;9.25;6.22;;;5.60;71.80;;;;;;5076094;28;20132;-25
2023/05/01 02:30:52;;;;;;;14.15;6.43;;;5.60;72.10;;;;;;5076070;28;20094;-25
2023/05/01 02:33:18;;;;;;;11.50;5.70;;;5.60;75.70;;;;;;5076754;28;20049;-25
2023/05/01 02:35:48;;;;;;;14.10;6.60;;;5.60;87.70;;;;;;5075984;28;20418;-26
2023/05/01 02:38:15;;;;;;;12.73;5.90;;;5.60;91.00;;;;;;5076548;28;20437;-26
2023/05/01 02:40:48;;;;;;;8.23;5.85;;;5.60;94.60;;;;;;5075900;28;20055;-26
2023/05/01 02:43:17;;;;;;;9.27;5.78;;;5.60;99.50;;;;;;5075742;28;20082;-25
2023/05/01 02:45:44;;;;;;;11.25;6.75;;;5.50;99.90;;;;;;5075767;28;20045;-25
2023/05/01 02:48:13;;;;;;;11.95;6.53;;;5.50;99.90;;;;;;5074492;28;20090;-26
2023/05/01 02:50:39;;;;;;;13.17;5.83;;;5.50;99.90;;;;;;5075695;28;20510;-26
2023/05/01 02:53:06;;;;;;;8.10;5.57;;;5.50;99.90;;;;;;5075536;28;20044;-25
2023/05/01 02:55:32;;;;;;;12.67;6.30;;;5.50;99.90;;;;;;5075612;28;20063;-25
2023/05/01 02:57:58;;;;;;;11.67;5.93;;;5.40;99.90;;;;;;5075559;28;20051;-26
2023/05/01 03:00:25;;;;;;;10.73;6.40;;;5.40;99.90;;;;;;5075474;28;20505;-25
2023/05/01 03:02:51;;;;;;;14.50;6.50;;;5.40;99.90;;;;;;5074165;28;20072;-25
2023/05/01 03:05:18;;;;;;;15.57;7.73;;;5.40;99.90;;;;;;5075405;28;20142;-25
2023/05/01 03:07:45;;;;;;;12.60;6.80;;;5.40;99.90;;;;;;5074182;28;20044;-25
2023/05/01 03:10:11;;;;;;;11.83;6.50;;;5.40;99.90;;;;;;5058440;28;20052;-26
2023/05/01 03:12:36;;;;;;;13.73;6.23;;;5.50;99.90;;;;;;5075266;28;20048;-25
2023/05/01 03:15:02;;;;;;;10.15;6.35;;;5.50;99.90;;;;;;5075147;28;20064;-25
2023/05/01 03:17:28;;;;;;;11.73;6.07;;;5.50;99.90;;;;;;5075112;28;20052;-25
2023/05/01 03:19:54;;;;;;;9.67;6.10;;;5.40;99.90;;;;;;5075382;28;20098;-26
2023/05/01 03:22:20;;;;;;;8.97;5.90;;;5.40;99.90;;;;;;5075589;28;20064;-26
2023/05/01 03:24:46;;;;;;;11.20;6.43;;;5.40;99.90;;;;;;5074977;28;20048;-26
2023/05/01 03:27:12;;;;;;;14.63;6.10;;;5.30;99.90;;;;;;5074952;28;20135;-26
2023/05/01 03:29:38;;;;;;;14.53;6.40;;;5.30;99.90;;;;;;5074848;28;20075;-25
2023/05/01 03:32:04;;;;;;;10.75;5.88;;;5.20;99.90;;;;;;5073047;28;20075;-26
2023/05/01 03:34:30;;;;;;;11.75;6.28;;;5.20;99.90;;;;;;5073561;28;20048;-26
2023/05/01 03:36:56;;;;;;;12.10;6.27;;;5.20;99.90;;;;;;5074704;28;20161;-26
2023/05/01 03:39:22;;;;;;;12.40;6.50;;;5.10;99.90;;;;;;5073723;28;20047;-25
2023/05/01 03:41:47;;;;;;;13.43;7.17;;;5.10;99.90;;;;;;5075174;28;20489;-26
2023/05/01 03:44:13;;;;;;;10.93;6.03;;;5.00;99.90;;;;;;5074834;28;20044;-26
2023/05/01 03:46:39;;;;;;;11.40;6.80;;;5.00;99.90;;;;;;5074750;28;20052;-25
2023/05/01 03:49:05;;;;;;;13.35;7.25;;;5.00;99.90;;;;;;5040344;28;20079;-25
2023/05/01 03:51:31;;;;;;;12.50;6.90;;;4.90;99.90;;;;;;5074443;28;20145;-26
2023/05/01 03:53:57;;;;;;;12.23;6.97;;;4.90;99.90;;;;;;5074305;28;20084;-26
2023/05/01 03:56:26;;;;;;;12.30;7.93;;;4.90;99.90;;;;;;5074938;28;20048;-25
2023/05/01 03:58:52;;;;;;;14.43;7.27;;;4.80;99.90;;;;;;5074314;28;20051;-26
2023/05/01 04:01:18;;;;;;;12.50;7.07;;;4.90;99.90;;;;;;5074279;28;20040;-26
2023/05/01 04:03:45;;;;;;;14.90;7.57;;;4.80;99.90;;;;;;5073257;28;20053;-26
2023/05/01 04:06:11;;;;;;;15.57;7.80;;;4.80;99.90;;;;;;5074178;28;20098;-25
2023/05/01 04:08:37;;;;;;;12.67;6.70;;;4.80;99.90;;;;;;5072816;28;20079;-25
2023/05/01 04:11:03;;;;;;;15.53;7.33;;;4.80;99.90;;;;;;5073017;28;20080;-26
2023/05/01 04:13:29;;;;;;;13.37;7.80;;;4.70;99.90;;;;;;5074435;28;20389;-26
2023/05/01 04:15:58;;;;;;;14.63;8.10;;;4.80;99.90;;;;;;5073686;28;20137;-26
2023/05/01 04:18:23;;;;;;;13.40;7.50;;;4.70;99.90;;;;;;5074549;28;20101;-26
2023/05/01 04:20:50;;;;;;;9.80;6.10;;;4.70;99.90;;;;;;5073808;28;20048;-26
2023/05/01 04:23:16;;;;;;;11.13;7.00;;;4.70;99.90;;;;;;5073873;28;20433;-26
2023/05/01 04:25:41;;;;;;;14.63;6.80;;;4.80;99.90;;;;;;5074462;28;20052;-26
2023/05/01 04:28:10;;;;;;;14.55;7.82;;;4.80;99.90;;;;;;5074303;28;20082;-27
2023/05/01 04:30:36;;;;;;;12.97;6.40;;;4.80;99.90;;;;;;5073104;28;20110;-26
2023/05/01 04:33:02;;;;;;;10.87;6.10;;;4.80;99.90;;;;;;5073698;28;20505;-26
2023/05/01 04:35:28;;;;;;;8.13;4.60;;;4.70;99.90;;;;;;5072767;28;20045;-25
2023/05/01 04:37:54;;;;;;;6.20;4.53;;;4.70;99.90;;;;;;5074230;28;20123;-26
2023/05/01 04:40:20;;;;;;;7.87;4.17;;;4.60;99.90;;;;;;5074286;28;20111;-26
2023/05/01 04:42:47;;;;;;;8.00;5.05;;;4.60;99.90;;;;;;5072148;28;20056;-26
2023/05/01 04:45:12;;;;;;;11.63;5.47;;;4.50;99.90;;;;;;5072929;28;20127;-26
2023/05/01 04:47:38;;;;;;;7.50;5.43;;;4.60;99.90;;;;;;5073461;28;20194;-25
2023/05/01 04:50:05;;;;;;;12.93;4.47;;;4.60;99.90;;;;;;5074085;28;20048;-26
2023/05/01 04:52:30;;;;;;;8.48;4.85;;;4.70;99.90;;;;;;5073784;28;20399;-26
2023/05/01 04:54:56;;;;;;;9.40;5.33;;;4.80;99.90;;;;;;5073193;28;20049;-25
2023/05/01 04:57:22;;;;;;;9.25;5.63;;;4.80;99.90;;;;;;5073420;28;20040;-26
2023/05/01 04:59:48;;;;;;;10.02;5.18;;;4.80;99.90;;;;;;5073394;28;20106;-26
2023/05/01 05:02:13;;;;;;;9.40;5.45;;;4.90;99.90;;;;;;5074252;28;20048;-26
2023/05/01 05:04:39;;;;;;;9.82;5.63;;;5.10;99.90;;;;;;5074170;28;20524;-26
2023/05/01 05:07:05;;;;;;;13.20;6.30;;;5.20;99.90;;;;;;5073428;28;20399;-26
2023/05/01 05:09:31;;;;;;;14.32;7.82;;;5.40;99.90;;;;;;5074185;28;20076;-25
2023/05/01 05:11:57;;;;;;;19.20;7.75;;;5.60;99.90;;;;;;5072742;28;20454;-26
2023/05/01 05:14:22;;;;;;;16.95;8.68;;;5.80;99.90;;;;;;5073991;28;20041;-26
2023/05/01 05:16:48;;;;;;;11.25;7.57;;;6.10;99.90;;;;;;5072698;28;20449;-26
2023/05/01 05:19:15;;;;;;;12.02;8.05;;;6.30;99.90;;;;;;5073193;28;20531;-26
2023/05/01 05:21:40;;;;;;;15.48;7.55;;;6.60;99.90;;;;;;5072252;28;20064;-26
2023/05/01 05:24:06;;;;;;;13.88;7.40;;;6.80;99.90;;;;;;5073218;28;20044;-26
2023/05/01 05:26:32;;;;;;;12.10;6.47;;;7.00;99.90;;;;;;5073756;28;20054;-25
2023/05/01 05:28:58;;;;;;;16.13;7.13;;;7.20;99.90;;;;;;5071929;28;20040;-26
2023/05/01 05:31:24;;;;;;;12.93;7.45;;;7.30;99.90;;;;;;5072138;28;20044;-26
2023/05/01 05:33:49;;;;;;;15.32;7.70;;;7.50;99.90;;;;;;5073015;28;20091;-26
2023/05/01 05:36:15;;;;;;;14.85;7.70;;;7.60;99.90;;;;;;5071778;28;20132;-26
2023/05/01 05:38:41;;;;;;;13.57;7.55;;;7.80;99.90;;;;;;5073289;28;20044;-26
2023/05/01 05:41:07;;;;;;;13.63;8.23;;;7.90;99.90;;;;;;5072347;28;20059;-26
2023/05/01 05:43:32;;;;;;;9.48;6.60;;;8.10;99.90;;;;;;5073342;28;20049;-26
2023/05/01 05:45:58;;;;;;;16.08;7.50;;;8.10;99.90;;;;;;5072690;28;20553;-26
2023/05/01 05:48:24;;;;;;;17.13;7.47;;;8.30;99.90;;;;;;5072870;28;20048;-26
2023/05/01 05:50:51;;;;;;;17.40;8.32;;;8.30;99.90;;;;;;5073469;28;20048;-27
2023/05/01 05:53:18;;;;;;;10.07;7.25;;;8.40;37.30;;;;;;5072825;28;20059;-26
2023/05/01 05:55:45;;;;;;;18.00;7.45;;;8.60;10.60;;;;;;5057037;28;20055;-25
2023/05/01 05:58:10;;;;;;;19.13;7.88;;;8.70;1.00;;;;;;5042484;28;20052;-26
2023/05/01 06:00:36;;;;;;;17.83;7.43;;;8.70;1.00;;;;;;5076509;28;20045;-26
2023/05/01 06:03:02;;;;;;;14.23;8.07;;;8.80;1.00;;;;;;5076431;28;20482;-26
2023/05/01 06:05:28;;;;;;;15.90;7.35;;;8.80;1.00;;;;;;5076370;28;20041;-27
2023/05/01 06:07:54;;;;;;;12.25;6.47;;;8.90;1.00;;;;;;5076446;28;20058;-26
2023/05/01 06:10:20;;;;;;;15.13;7.60;;;9.00;1.00;;;;;;5076322;28;20131;-26
2023/05/01 06:12:46;;;;;;;16.20;7.07;;;9.10;1.00;;;;;;5076316;28;20048;-26
2023/05/01 06:15:15;;;;;;;14.20;7.35;;;9.10;1.00;;;;;;5076125;28;20428;-26
2023/05/01 06:17:42;;;;;;;16.70;6.97;;;9.20;1.00;;;;;;5076228;28;20575;-26
2023/05/01 06:20:09;;;;;;;17.10;6.85;;;9.30;99.90;;;;;;5075199;28;20057;-26
2023/05/01 06:22:34;;;;;;;13.80;7.43;;;9.50;99.90;;;;;;5075787;28;20064;-26
2023/05/01 06:25:00;;;;;;;15.88;7.05;;;9.60;1.00;;;;;;5075105;28;20041;-26
2023/05/01 06:27:26;;;;;;;10.80;6.97;;;9.70;99.90;;;;;;5076207;28;20067;-26
2023/05/01 06:29:52;;;;;;;14.50;7.18;;;9.80;1.00;;;;;;5075922;28;20083;-27
2023/05/01 06:32:18;;;;;;;17.20;7.97;;;10.00;1.00;;;;;;5075136;28;20083;-27
2023/05/01 06:34:43;;;;;;;11.95;6.82;;;10.00;99.90;;;;;;5075513;28;20406;-26
2023/05/01 06:37:09;;;;;;;15.10;6.88;;;10.20;99.90;;;;;;5075898;28;20048;-26
2023/05/01 06:39:35;;;;;;;14.73;6.93;;;10.30;99.90;;;;;;5075860;28;20045;-26
2023/05/01 06:42:02;;;;;;;15.32;7.40;;;10.30;99.90;;;;;;5075892;28;20479;-26
2023/05/01 06:44:28;;;;;;;10.13;7.28;;;10.30;95.80;;;;;;5075702;28;20048;-27
2023/05/01 06:46:55;;;;;;;11.65;6.80;;;10.40;99.90;;;;;;5075736;28;20055;-26
2023/05/01 06:49:21;;;;;;;12.73;7.07;;;10.50;99.90;;;;;;5075229;28;20378;-28
2023/05/01 06:51:47;;;;;;;13.05;6.28;;;10.60;99.90;;;;;;5074113;28;20593;-26
2023/05/01 06:54:13;;;;;;;12.77;6.43;;;10.60;40.40;;;;;;5075755;28;20195;-26
2023/05/01 06:56:38;;;;;;;11.77;6.45;;;10.80;34.40;;;;;;5074277;28;20496;-26
2023/05/01 06:59:04;;;;;;;10.43;5.70;;;10.90;1.00;;;;;;5074497;28;20082;-26
2023/05/01 07:01:30;;;;;;;12.15;5.90;;;11.00;1.00;;;;;;5075431;28;20049;-27
2023/05/01 07:03:56;;;;;;;10.15;5.50;;;11.20;1.00;;;;;;5075318;28;20218;-27
2023/05/01 07:06:21;;;;;;;12.20;5.72;;;11.30;99.90;;;;;;5073291;28;20083;-26
2023/05/01 07:08:47;;;;;;;14.18;6.13;;;11.40;99.90;;;;;;5075895;28;20044;-26
2023/05/01 07:11:13;;;;;;;11.68;6.78;;;11.50;99.90;;;;;;5076057;28;20119;-27
2023/05/01 07:13:39;;;;;;;11.40;6.32;;;11.60;99.90;;;;;;5074729;28;20621;-27
2023/05/01 07:16:05;;;;;;;10.38;5.80;;;11.70;16.10;;;;;;5075212;28;20110;-26
2023/05/01 07:18:31;;;;;;;11.85;5.75;;;11.80;99.90;;;;;;5075142;28;20128;-26
2023/05/01 07:20:57;;;;;;;10.57;5.55;;;11.90;99.90;;;;;;5075136;28;20145;-26
2023/05/01 07:23:24;;;;;;;12.38;5.68;;;12.10;18.80;;;;;;5075058;28;20118;-26
2023/05/01 07:25:50;;;;;;;9.65;5.47;;;12.10;60.80;;;;;;5075516;28;20044;-26
2023/05/01 07:28:16;;;;;;;11.43;5.10;;;12.30;81.20;;;;;;5074910;28;20120;-26
2023/05/01 07:30:42;;;;;;;9.30;4.90;;;12.40;1.00;;;;;;5074896;28;20056;-27
2023/05/01 07:33:08;;;;;;;24.65;5.35;;;12.50;1.00;;;;;;5074977;28;20045;-27
2023/05/01 07:35:34;;;;;;;8.93;4.28;;;12.60;99.90;;;;;;5074761;28;20044;-28
2023/05/01 07:37:59;;;;;;;8.95;4.88;;;12.70;99.90;;;;;;5074544;28;20052;-27
2023/05/01 07:40:25;;;;;;;9.27;5.18;;;12.80;24.80;;;;;;5074545;28;20505;-27
2023/05/01 07:42:51;;;;;;;8.35;4.97;;;12.90;1.00;;;;;;5074820;28;20049;-27
2023/05/01 07:45:17;;;;;;;13.27;5.22;;;12.90;1.00;;;;;;5074462;28;20052;-27
2023/05/01 07:47:42;;;;;;;10.63;4.90;;;13.10;1.00;;;;;;5073224;28;20553;-27
2023/05/01 07:50:12;;;;;;;9.88;5.13;;;13.20;1.00;;;;;;5074433;28;20048;-27
2023/05/01 07:52:38;;;;;;;6.45;4.53;;;13.50;1.00;;;;;;5073444;28;20446;-27
2023/05/01 07:55:04;;;;;;;11.90;4.93;;;13.60;1.00;;;;;;5039836;28;20492;-27
2023/05/01 07:57:32;;;;;;;9.82;4.63;;;13.70;99.90;;;;;;5074245;28;20040;-28
2023/05/01 07:59:58;;;;;;;13.65;4.47;;;13.80;99.90;;;;;;5073329;28;20525;-27
2023/05/01 08:02:24;;;;;;;12.68;5.28;;;13.90;99.90;;;;;;5072784;28;20402;-27
2023/05/01 08:04:50;;;;;;;9.15;4.53;;;14.00;37.00;;;;;;5074214;28;20043;-27
2023/05/01 08:07:16;;;;;;;7.95;4.35;;;14.10;1.00;;;;;;5074199;28;20052;-27
2023/05/01 08:09:42;;;;;;;9.57;4.30;;;14.10;1.00;;;;;;5074124;28;20045;-26
2023/05/01 08:12:07;;;;;;;7.65;4.00;;;14.20;99.90;;;;;;5074039;28;20071;-27
2023/05/01 08:14:33;;;;;;;6.35;3.55;;;14.30;99.90;;;;;;5073731;28;20036;-27
2023/05/01 08:16:59;;;;;;;7.57;3.75;;;14.40;99.90;;;;;;5074448;28;20059;-27
2023/05/01 08:19:26;;;;;;;11.25;4.70;;;14.40;1.00;;;;;;5072639;28;20048;-27
2023/05/01 08:21:52;;;;;;;8.32;4.18;;;14.60;30.00;;;;;;5073941;28;20045;-27
2023/05/01 08:24:18;;;;;;;7.57;3.85;;;14.90;54.30;;;;;;5055976;28;20075;-27
2023/05/01 08:26:44;;;;;;;9.38;3.75;;;15.10;99.90;;;;;;5055909;28;20040;-27
2023/05/01 08:29:10;;;;;;;7.95;3.63;;;15.20;1.00;;;;;;5073498;28;20124;-27
2023/05/01 08:31:36;;;;;;;8.88;3.70;;;15.30;99.90;;;;;;5077709;28;20478;-28
2023/05/01 08:34:03;;;;;;;8.73;3.35;;;15.30;55.00;;;;;;5073654;28;20477;-29
2023/05/01 08:36:29;;;;;;;9.38;3.70;;;15.50;95.70;;;;;;5084773;28;20432;-27
2023/05/01 08:38:55;;;;;;;6.20;3.03;;;15.60;99.90;;;;;;5060161;28;20048;-26
2023/05/01 08:41:22;;;;;;;10.65;3.60;;;15.70;40.90;;;;;;5073880;28;20044;-28
2023/05/01 08:43:48;;;;;;;6.03;3.33;;;15.60;1.00;;;;;;5073600;28;20040;-27
2023/05/01 08:46:47;;;;;;;8.15;3.08;;;15.60;1.00;;;;;;5073913;28;20515;-28
2023/05/01 08:49:15;;;;;;;8.45;3.22;;;15.70;99.90;;;;;;5090074;28;20051;-27
2023/05/01 08:51:45;;;;;;;5.38;2.83;;;15.70;99.90;;;;;;5092778;28;20044;-28
2023/05/01 08:54:12;;;;;;;6.63;3.45;;;16.00;99.90;;;;;;5092748;28;20153;-28
2023/05/01 08:56:38;;;;;;;6.55;3.10;;;16.30;74.60;;;;;;5075615;28;20098;-27
2023/05/01 08:59:06;;;;;;;10.18;3.47;;;16.40;31.90;;;;;;5074765;28;20048;-28
2023/05/01 09:01:32;;;;;;;7.03;2.83;;;17.00;1.00;;;;;;5073184;28;20041;-26
2023/05/01 09:04:02;;;;;;;7.63;3.22;;;17.70;1.00;;;;;;5091082;28;20178;-27
2023/05/01 09:06:28;;;;;;;8.02;3.15;;;18.40;1.00;;;;;;5072408;28;20052;-27
2023/05/01 09:08:54;;;;;;;5.95;2.50;;;18.50;1.00;;;;;;5073335;28;20487;-28
2023/05/01 09:11:24;;;;;;;11.10;3.38;;;18.60;99.90;;;;;;5074147;28;20058;-28
2023/05/01 09:13:52;;;;;;;7.95;2.83;;;19.10;99.90;;;;;;5073751;28;20041;-27
2023/05/01 09:16:18;;;;;;;5.97;2.88;;;19.20;99.90;;;;;;5073681;28;20064;-28
2023/05/01 09:18:44;;;;;;;8.40;3.00;;;19.50;99.90;;;;;;5073233;28;20059;-28
2023/05/01 09:21:11;;;;;;;8.13;2.97;;;19.60;99.90;;;;;;5073800;28;20228;-28
2023/05/01 09:23:37;;;;;;;6.22;2.67;;;19.70;99.90;;;;;;5073243;28;20049;-28
2023/05/01 09:26:09;;;;;;;5.15;2.42;;;20.10;99.90;;;;;;5091887;28;20055;-28
2023/05/01 09:28:47;;;;;;;6.03;2.45;;;20.60;99.90;;;;;;5093429;28;20048;-27
2023/05/01 09:31:31;;;;;;;5.32;2.90;;;;;;;;;;5097138;28;20081;-27
2023/05/01 09:34:01;;;;;;;6.97;2.70;;;21.30;99.90;;;;;;5097242;28;20126;-27
2023/05/01 09:36:32;;;;;;;7.38;2.85;;;21.50;99.90;;;;;;5097064;28;20494;-29
2023/05/01 09:39:01;;;;;;;6.05;2.47;;;21.40;99.90;;;;;;5087918;28;20055;-27
2023/05/01 09:41:28;;;;;;;5.60;2.88;;;21.80;99.90;;;;;;5076870;28;20052;-27
2023/05/01 09:43:57;;;;;;;6.82;2.15;;;22.00;99.90;;;;;;5076818;28;20045;-27
2023/05/01 09:46:25;;;;;;;6.57;2.40;;;22.50;99.90;;;;;;5076867;28;20494;-27
2023/05/01 09:48:59;;;;;;;7.00;2.63;;;22.90;99.90;;;;;;5075353;28;20491;-28
2023/05/01 09:51:33;;;;;;;4.35;2.25;;;22.40;93.40;;;;;;5082284;28;20097;-27
2023/05/01 09:54:03;;;;;;;5.60;1.77;;;22.70;70.60;;;;;;5096671;28;20109;-27
2023/05/01 09:56:31;;;;;;;7.90;2.55;;;22.90;82.20;;;;;;5082161;28;20092;-27
2023/05/01 09:59:13;;;;;;;3.03;1.85;;;22.90;98.10;;;;;;5076606;28;20055;-27
2023/05/01 10:01:40;;;;;;;9.02;2.33;;;23.20;99.90;;;;;;5077084;28;20067;-28
2023/05/01 10:04:08;;;;;;;6.10;2.25;;;23.60;99.90;;;;;;5076503;28;20222;-28
2023/05/01 10:06:35;;;;;;;3.90;1.45;;;24.30;99.90;;;;;;5076414;28;20048;-28
2023/05/01 10:09:02;;;;;;;6.38;2.00;;;24.50;98.70;;;;;;5076522;28;20048;-27
2023/05/01 10:11:28;;;;;;;5.72;2.42;;;24.80;79.10;;;;;;5077274;28;20375;-28
2023/05/01 10:14:08;;;;;;;5.45;3.10;;;24.10;56.80;;;;;;5055621;28;20043;-28
2023/05/01 10:16:35;;;;;;;4.43;2.25;;;23.10;16.90;;;;;;5075054;28;20109;-28
2023/05/01 10:19:02;;;;;;;6.15;2.55;;;22.50;1.00;;;;;;5041922;28;20044;-27
2023/05/01 10:21:30;;;;;;;5.00;2.58;;;22.90;1.00;;;;;;5076236;28;20081;-28
2023/05/01 10:23:57;;;;;;;6.55;2.53;;;22.60;4.50;;;;;;5077257;28;20044;-28
2023/05/01 10:26:25;;;;;;;7.47;2.53;;;22.70;4.20;;;;;;5095030;28;20047;-28
2023/05/01 10:28:51;;;;;;;4.68;1.98;;;22.90;20.20;;;;;;5095641;28;20080;-25
2023/05/01 10:31:17;;;;;;;4.93;2.03;;;23.30;25.10;;;;;;5074682;28;20521;-27
2023/05/01 10:33:46;;;;;;;3.50;1.60;;;23.50;14.90;;;;;;5076387;28;20064;-28
2023/05/01 10:36:18;;;;;;;3.45;1.70;;;22.90;1.00;;;;;;5080693;28;20047;-27
2023/05/01 10:38:47;;;;;;;5.35;2.38;;;22.50;1.00;;;;;;5083959;28;20036;-29
2023/05/01 10:41:14;;;;;;;3.22;1.60;;;22.50;12.30;;;;;;5095878;28;20040;-27
2023/05/01 10:43:40;;;;;;;3.55;1.15;;;22.40;1.00;;;;;;5083993;28;20051;-28
2023/05/01 10:46:09;;;;;;;3.95;1.48;;;22.40;1.00;;;;;;5077669;28;20044;-28
2023/05/01 10:48:41;;;;;;;3.42;1.00;;;22.40;1.00;;;;;;5096464;28;20075;-27
2023/05/01 10:51:11;;;;;;;3.97;1.33;;;22.70;1.00;;;;;;5095641;28;20122;-29
2023/05/01 10:53:41;;;;;;;4.25;1.45;;;22.30;1.00;;;;;;5095687;28;20040;-27
2023/05/01 10:56:25;;;;;;;4.10;1.45;;;22.20;1.00;;;;;;5085212;28;20044;-28
2023/05/01 10:59:03;;;;;;;4.22;1.40;;;22.60;1.00;;;;;;5074866;28;20444;-27
2023/05/01 11:01:32;;;;;;;3.97;1.50;;;22.80;1.00;;;;;;5076871;28;20490;-27
2023/05/01 11:04:03;;;;;;;7.28;2.15;;;23.30;23.70;;;;;;5086421;28;20047;-28
2023/05/01 11:06:29;;;;;;;4.43;1.85;;;22.50;1.00;;;;;;5075895;28;20044;-28
2023/05/01 11:08:55;;;;;;;2.83;1.70;;;22.50;1.00;;;;;;5075347;28;20044;-28
2023/05/01 11:11:21;;;;;;;3.30;1.48;;;21.70;1.00;;;;;;5074564;28;20109;-28
2023/05/01 11:14:07;;;;;;;2.20;1.33;;;21.90;1.00;;;;;;5079015;28;20051;-30
2023/05/01 11:16:36;;;;;;;6.30;1.30;;;21.60;3.80;;;;;;5094947;28;20512;-27
2023/05/01 11:19:11;;;;;;;2.65;1.05;;;21.50;1.00;;;;;;5093998;28;20489;-28
2023/05/01 11:21:40;;;;;;;5.55;1.38;;;21.00;1.00;;;;;;5080038;28;20523;-27
2023/05/01 11:24:06;;;;;;;3.13;1.20;;;21.60;1.80;;;;;;5077275;28;20044;-28
2023/05/01 11:26:38;;;;;;;3.85;1.23;;;21.40;1.00;;;;;;5094504;28;20047;-28
2023/05/01 11:29:05;;;;;;;4.17;1.30;;;20.90;1.00;;;;;;5095784;28;20048;-27
2023/05/01 11:31:31;;;;;;;3.00;1.20;;;20.50;1.00;;;;;;5095006;28;20055;-27
2023/05/01 11:33:58;;;;;;;3.95;1.50;;;20.40;20.80;;;;;;5095480;28;20109;-27
2023/05/01 11:36:25;;;;;;;5.30;1.20;;;20.30;27.30;;;;;;5095007;28;20067;-27
2023/05/01 11:38:55;;;;;;;5.72;1.60;;;19.90;32.00;;;;;;5076621;28;20048;-28
2023/05/01 11:41:22;;;;;;;3.88;1.48;;;20.10;99.90;;;;;;5074915;28;20102;-27
2023/05/01 11:43:58;;;;;;;4.80;1.58;;;20.30;94.00;;;;;;5074666;28;20101;-27
2023/05/01 11:46:29;;;;;;;3.63;1.27;;;20.50;47.70;;;;;;5073499;28;20048;-27
2023/05/01 11:48:56;;;;;;;3.47;1.55;;;20.30;26.50;;;;;;5074436;28;20084;-27
2023/05/01 11:51:23;;;;;;;4.32;1.95;;;20.10;22.60;;;;;;5074506;28;20048;-28
2023/05/01 11:54:01;;;;;;;4.18;1.83;;;20.20;99.90;;;;;;5073782;28;20052;-26
2023/05/01 11:56:27;;;;;;;3.05;1.30;;;20.40;47.80;;;;;;5074409;28;20572;-28
2023/05/01 11:58:56;;;;;;;3.67;1.13;;;20.50;52.30;;;;;;5074337;28;20123;-28
2023/05/01 12:01:43;;;;;;;3.78;1.15;;;20.70;66.90;;;;;;5074909;28;20048;-28
2023/05/01 12:04:10;;;;;;;3.50;1.60;;;21.20;92.90;;;;;;5074312;28;20475;-29
2023/05/01 12:06:44;;;;;;;3.20;1.23;;;20.70;48.80;;;;;;5076214;28;20409;-27
2023/05/01 12:09:21;;;;;;;4.10;1.85;;;20.70;24.00;;;;;;5094230;28;20497;-28
2023/05/01 12:11:50;;;;;;;5.38;2.03;;;20.80;9.00;;;;;;5086523;28;20092;-28
2023/05/01 12:14:16;;;;;;;4.05;1.90;;;20.90;14.50;;;;;;5072703;28;20446;-27
2023/05/01 12:16:42;;;;;;;5.60;1.83;;;20.90;31.10;;;;;;5072251;28;20099;-27
2023/05/01 12:19:08;;;;;;;4.03;1.95;;;21.10;38.00;;;;;;5073833;28;20036;-27
2023/05/01 12:21:35;;;;;;;4.57;2.45;;;20.70;33.30;;;;;;5073845;28;20147;-27
2023/05/01 12:24:14;;;;;;;3.97;2.25;;;20.60;93.30;;;;;;5075594;28;20070;-29
2023/05/01 12:26:41;;;;;;;3.72;2.28;;;20.30;99.90;;;;;;5094361;28;20109;-28
2023/05/01 12:29:07;;;;;;;3.17;2.13;;;20.10;99.90;;;;;;5075516;28;20387;-27
2023/05/01 12:31:35;;;;;;;3.53;1.90;;;19.90;99.90;;;;;;5084439;28;20044;-27
2023/05/01 12:34:03;;;;;;;5.07;2.38;;;20.10;99.90;;;;;;5093895;28;20051;-29
2023/05/01 12:36:34;;;;;;;3.90;1.92;;;19.90;98.80;;;;;;5093986;28;20048;-28
2023/05/01 12:39:08;;;;;;;4.22;2.03;;;19.70;92.50;;;;;;5093036;28;20474;-29
2023/05/01 12:41:43;;;;;;;3.63;1.77;;;19.60;94.40;;;;;;5092717;28;20051;-27
2023/05/01 12:44:16;;;;;;;4.47;1.60;;;19.80;99.90;;;;;;5092835;28;20044;-27
2023/05/01 12:46:44;;;;;;;5.25;1.85;;;19.80;99.90;;;;;;5077784;28;20043;-27
2023/05/01 12:49:17;;;;;;;5.40;2.10;;;19.70;99.90;;;;;;5073455;28;20505;-28
2023/05/01 12:51:47;;;;;;;6.32;2.15;;;19.40;99.90;;;;;;5073053;28;20069;-27
2023/05/01 12:54:22;;;;;;;5.53;2.08;;;19.30;99.90;;;;;;5072238;28;20049;-27